Latest Weather Observations for Walpole North

IDW60801

Issued at 6:43 pm WST Thursday 22 November 2018 (issued every 10 minutes, with the page automatically refreshed every 10 minutes)

About weather observations | Map of weather stations | Latest weather observations for WA | Other Formats
Station Details ID: 009998 Name: NORTH WALPOLE Lat: -34.95 Lon: 116.72 Height: 73.0 m
Data from the previous 72 hours. | See also: Recent months at Walpole North
Date/Time
WST
Temp
°C
App
Temp
°C
Dew
Point
°C
Rel
Hum
%
Delta-T
°C
Wind Press
QNH
hPa
Press
MSL
hPa
Rain since
9am
mm
Dir  Spd
km/h
Gust
km/h
Spd
kts
Gust
kts
22/06:30pm 15.8 14.0 12.0 78 2.1 ESE 13 20 7 11 1009.9 1009.8 0.0
22/06:00pm 16.2 14.5 12.4 78 2.1 ESE 13 20 7 11 1009.8 1009.7 0.0
22/05:30pm 16.5 14.4 12.5 77 2.2 ESE 15 20 8 11 1009.7 1009.6 0.0
22/05:00pm 16.7 14.7 12.7 77 2.2 SE 15 22 8 12 1009.5 1009.4 0.0
22/04:30pm 17.0 15.4 12.7 76 2.4 SE 13 22 7 12 1009.2 1009.1 0.0
22/04:00pm 17.1 14.6 12.4 74 2.6 SE 17 24 9 13 1009.2 1009.1 0.0
22/03:30pm 17.4 14.6 12.5 73 2.7 SE 19 28 10 15 1009.0 1008.8 0.0
22/03:00pm 17.5 14.0 12.2 71 2.9 ESE 22 33 12 18 1009.1 1009.0 0.0
22/02:30pm 17.9 15.1 12.6 71 3.0 SE 19 26 10 14 1009.2 1009.1 0.0
22/02:00pm 18.0 14.6 12.5 70 3.1 SE 22 30 12 16 1009.5 1009.4 0.0
22/01:30pm 18.7 16.1 12.0 65 3.7 SE 17 30 9 16 1009.7 1009.6 0.0
22/01:00pm 19.6 16.5 12.1 62 4.2 SE 20 30 11 16 1009.8 1009.7 0.0
22/12:30pm 19.1 15.9 11.4 61 4.2 SE 19 26 10 14 1010.3 1010.2 0.0
22/12:00pm 20.5 19.4 12.0 58 4.8 E 9 13 5 7 1010.5 1010.4 0.0
22/11:30am 20.4 18.6 10.8 54 5.3 NE 11 15 6 8 1011.0 1010.9 0.0
22/11:00am 19.7 17.6 9.6 52 5.4 ENE 11 19 6 10 1011.4 1011.3 0.0
22/10:30am 19.7 16.8 9.6 52 5.4 E 15 22 8 12 1011.8 1011.7 0.0
22/10:00am 19.1 16.3 10.1 56 4.8 ENE 15 28 8 15 1012.2 1012.1 0.0
22/09:30am 17.8 14.5 9.7 59 4.3 ENE 17 22 9 12 1012.6 1012.5 0.0
22/09:00am 17.2 14.8 9.9 62 3.9 ENE 13 22 7 12 1013.0 1012.9 0.0
22/08:30am 15.8 13.0 8.5 62 3.7 ENE 13 22 7 12 1013.4 1013.3 0.0
22/08:00am 14.7 11.5 8.6 67 3.1 ENE 15 20 8 11 1013.5 1013.4 0.0
22/07:30am 13.4 9.3 7.8 69 2.8 ENE 19 35 10 19 1013.4 1013.3 0.0
22/07:00am 12.1 8.6 7.4 73 2.3 ENE 15 24 8 13 1013.1 1013.0 0.0
22/06:30am 11.4 8.1 7.9 79 1.7 ENE 15 26 8 14 1012.9 1012.8 0.0
22/06:00am 10.2 7.1 7.3 82 1.4 ENE 13 22 7 12 1012.6 1012.5 0.0
22/05:30am 9.1 6.7 7.2 88 0.9 E 9 13 5 7 1012.4 1012.3 0.0
22/05:00am 8.9 6.2 7.2 89 0.8 E 11 19 6 10 1012.3 1012.2 0.0
22/04:30am 9.0 5.9 7.3 89 0.8 E 13 20 7 11 1012.4 1012.3 0.0
22/04:00am 9.3 6.3 7.7 90 0.8 ENE 13 22 7 12 1012.4 1012.3 0.0
22/03:30am 9.2 6.6 7.8 91 0.7 E 11 17 6 9 1012.5 1012.4 0.0
22/03:00am 9.3 6.8 8.4 94 0.4 E 11 15 6 8 1012.6 1012.5 0.0
22/02:30am 9.5 7.1 8.6 94 0.4 E 11 17 6 9 1012.9 1012.8 0.0
22/02:00am 9.7 7.3 8.6 93 0.5 E 11 15 6 8 1013.2 1013.1 0.0
22/01:30am 9.9 7.5 8.7 92 0.6 E 11 17 6 9 1013.6 1013.5 0.0
22/01:00am 10.1 8.2 9.0 93 0.5 E 9 15 5 8 1013.9 1013.8 0.0
22/12:30am 10.3 8.0 8.9 91 0.7 E 11 15 6 8 1014.2 1014.1 0.0
22/12:00am 10.7 8.0 9.0 89 0.8 E 13 17 7 9 1014.5 1014.4 0.0
 
Date/Time
WST
Temp
°C
App
Temp
°C
Dew
Point
°C
Rel
Hum
%
Delta-T
°C
Wind Press
QNH
hPa
Press
MSL
hPa
Rain since
9am
mm
Dir  Spd
km/h
Gust
km/h
Spd
kts
Gust
kts
21/11:30pm 10.9 8.9 8.8 87 1.0 E 9 15 5 8 1014.9 1014.8 0.0
21/11:00pm 11.3 9.4 8.9 85 1.2 E 9 17 5 9 1015.3 1015.2 0.0
21/10:30pm 11.6 8.9 9.0 84 1.3 E 13 20 7 11 1015.5 1015.4 0.0
21/10:00pm 11.8 9.2 9.4 85 1.2 E 13 20 7 11 1015.8 1015.7 0.0
21/09:30pm 12.2 8.9 9.6 84 1.3 E 17 22 9 12 1016.1 1016.0 0.0
21/09:00pm 12.3 9.1 10.0 86 1.2 E 17 20 9 11 1016.3 1016.2 0.0
21/08:30pm 12.6 9.9 10.5 87 1.1 E 15 24 8 13 1016.4 1016.3 0.0
21/08:00pm 12.3 10.4 10.4 88 1.0 ESE 11 19 6 10 1016.3 1016.2 0.0
21/07:30pm 12.5 10.5 10.2 86 1.2 ESE 11 15 6 8 1016.4 1016.3 0.0
21/07:00pm 13.1 10.3 10.1 82 1.5 SE 15 19 8 10 1016.6 1016.5 0.0
21/06:30pm 14.0 11.2 10.0 77 2.1 ESE 15 24 8 13 1016.5 1016.4 0.0
21/06:00pm 14.4 12.0 10.2 76 2.2 ESE 13 19 7 10 1016.3 1016.2 0.0
21/05:30pm 14.7 11.1 9.7 72 2.6 SE 19 28 10 15 1016.3 1016.2 0.0
21/05:00pm 15.2 12.0 10.0 71 2.7 SE 17 24 9 13 1016.2 1016.1 0.0
21/04:30pm 16.2 13.0 10.1 67 3.2 ESE 17 26 9 14 1016.2 1016.1 0.0
21/04:00pm 16.3 13.2 10.2 67 3.2 SE 17 24 9 13 1016.3 1016.2 0.0
21/03:30pm 16.7 13.2 10.3 66 3.4 SE 19 30 10 16 1016.4 1016.3 0.0
21/03:00pm 17.6 14.2 10.5 63 3.8 SE 19 30 10 16 1016.5 1016.4 0.0
21/02:30pm 17.6 14.5 10.2 62 3.9 E 17 28 9 15 1016.8 1016.7 0.0
21/02:00pm 17.3 14.0 9.7 61 4.0 ESE 17 28 9 15 1017.0 1016.9 0.0
21/01:30pm 17.4 13.9 10.1 62 3.9 E 19 28 10 15 1017.2 1017.1 0.0
21/01:00pm 17.1 13.9 10.0 63 3.8 ESE 17 24 9 13 1017.4 1017.3 0.0
21/12:30pm 17.2 14.3 11.0 67 3.3 ESE 17 26 9 14 1017.6 1017.5 0.0
21/12:00pm 16.7 13.9 11.4 71 2.9 ESE 17 26 9 14 1018.0 1017.9 0.0
21/11:30am 16.9 14.7 12.2 74 2.6 ESE 15 20 8 11 1018.4 1018.3 0.0
21/11:00am 15.7 12.7 10.5 71 2.7 E 17 26 9 14 1018.6 1018.5 0.0
21/10:30am 15.7 14.3 12.3 80 1.9 E 11 22 6 12 1018.8 1018.7 0.0
21/10:00am 15.9 14.0 11.7 76 2.3 E 13 19 7 10 1018.9 1018.8 0.0
21/09:30am 14.5 13.1 13.5 94 0.6 ESE 13 19 7 10 1019.1 1019.0 0.0
21/09:00am 14.1 13.9 13.5 96 0.3 SSE 7 17 4 9 1019.1 1019.0 3.4
21/08:30am 13.0 12.2 13.0 100 0.0 SSE 9 11 5 6 1019.5 1019.4 3.2
21/08:00am 13.8 12.1 12.4 91 0.8 ESE 13 19 7 10 1019.5 1019.4 3.0
21/07:30am 14.2 12.3 11.9 86 1.2 SE 13 19 7 10 1019.3 1019.2 3.0
21/07:00am 13.7 12.5 12.9 95 0.4 ESE 11 17 6 9 1019.4 1019.3 3.0
21/06:30am 12.2 10.8 12.2 100 0.0 E 11 17 6 9 1019.5 1019.4 3.0
21/06:00am 12.1 10.6 11.9 99 0.1 E 11 20 6 11 1019.3 1019.2 3.0
21/05:30am 11.9 10.6 11.3 96 0.3 ESE 9 15 5 8 1019.0 1018.9 2.8
21/05:00am 11.7 10.3 10.8 94 0.5 SE 9 13 5 7 1018.7 1018.6 2.8
21/04:30am 11.7 10.5 11.5 99 0.1 SE 9 13 5 7 1018.7 1018.6 2.8
21/04:00am 12.1 11.0 11.9 99 0.1 SSE 9 20 5 11 1018.6 1018.5 2.8
21/03:30am 11.8 11.2 11.6 99 0.1 SSE 6 13 3 7 1018.5 1018.4 2.8
21/03:00am 12.0 10.9 12.0 100 0.0 ESE 9 17 5 9 1018.6 1018.5 2.8
21/02:30am 11.8 12.0 11.8 100 0.0 S 2 7 1 4 1018.8 1018.7 2.6
21/02:00am 11.8 10.7 11.8 100 0.0 SSW 9 15 5 8 1019.0 1018.9 2.6
21/01:30am 11.5 11.6 11.5 100 0.0 SW 2 6 1 3 1019.2 1019.1 2.6
21/01:00am 12.0 12.2 12.0 100 0.0 SSW 2 9 1 5 1019.4 1019.3 2.6
21/12:30am 11.9 10.8 11.9 100 0.0 SSW 9 15 5 8 1019.6 1019.5 2.6
21/12:00am 11.9 11.2 11.9 100 0.0 SSE 7 11 4 6 1020.0 1019.8 2.2
 
Date/Time
WST
Temp
°C
App
Temp
°C
Dew
Point
°C
Rel
Hum
%
Delta-T
°C
Wind Press
QNH
hPa
Press
MSL
hPa
Rain since
9am
mm
Dir  Spd
km/h
Gust
km/h
Spd
kts
Gust
kts
20/11:30pm 11.7 12.2 11.7 100 0.0 CALM 0 4 0 2 1020.2 1020.0 2.0
20/11:00pm 11.8 10.2 11.6 99 0.1 SSW 11 24 6 13 1020.6 1020.4 1.8
20/10:30pm 11.8 11.0 11.6 99 0.1 SW 7 13 4 7 1020.7 1020.5 1.6
20/10:00pm 12.3 11.2 12.1 99 0.1 SW 9 20 5 11 1021.0 1020.9 1.6
20/09:30pm 12.2 10.7 12.0 99 0.1 SW 11 19 6 10 1021.0 1020.9 1.6
20/09:00pm 12.6 12.0 12.4 99 0.1 S 7 13 4 7 1021.1 1021.0 1.6
20/08:30pm 12.1 10.6 11.9 99 0.1 SSW 11 19 6 10 1021.1 1021.0 1.4
20/08:00pm 12.3 11.6 12.1 99 0.1 SW 7 11 4 6 1020.9 1020.8 1.4
20/07:30pm 12.7 11.6 11.8 94 0.5 SW 9 11 5 6 1020.9 1020.8 1.2
20/07:00pm 12.6 11.1 12.0 96 0.3 SSW 11 20 6 11 1021.0 1020.9 1.0
20/06:30pm 12.9 11.5 12.3 96 0.3 SSW 11 17 6 9 1020.8 1020.7 1.0
20/06:00pm 13.0 11.4 12.8 99 0.1 SSW 13 20 7 11 1020.6 1020.4 1.0
20/05:30pm 12.9 11.0 12.9 100 0.0 SSW 15 26 8 14 1020.4 1020.2 1.0
20/05:00pm 14.1 11.9 12.0 87 1.1 SSW 15 33 8 18 1020.3 1020.1 0.6
20/04:30pm 13.7 10.7 12.1 90 0.9 SW 19 28 10 15 1020.4 1020.2 0.6
20/04:00pm 14.4 11.3 11.6 83 1.5 SSW 19 28 10 15 1020.2 1020.0 0.6
20/03:30pm 13.8 12.9 13.6 99 0.1 SW 11 19 6 10 1020.4 1020.2 0.6
20/03:00pm 14.3 11.8 14.1 99 0.1 SSW 20 35 11 19 1020.5 1020.3 0.6
20/02:30pm 13.5 12.1 13.3 99 0.1 SW 13 22 7 12 1020.5 1020.3 0.4
20/02:00pm 13.4 11.7 12.6 95 0.4 SSW 13 20 7 11 1020.7 1020.5 0.2
20/01:30pm 14.0 10.8 11.2 83 1.5 SW 19 32 10 17 1021.2 1021.1 0.0
20/01:00pm 16.2 13.1 10.3 68 3.1 WSW 17 30 9 16 1020.9 1020.8 0.0
20/12:30pm 14.8 11.1 10.2 74 2.4 WSW 20 39 11 21 1021.3 1021.2 0.0
20/12:00pm 16.1 12.9 10.0 67 3.2 SW 17 28 9 15 1021.4 1021.3 0.0
20/11:30am 16.4 13.0 9.1 62 3.8 SW 17 28 9 15 1021.7 1021.6 0.0
20/11:00am 15.9 12.1 8.9 63 3.6 SW 19 32 10 17 1021.9 1021.8 0.0
20/10:30am 15.0 11.5 8.9 67 3.1 WSW 17 28 9 15 1022.3 1022.2 0.0
20/10:00am 13.8 9.5 7.8 67 3.0 SW 20 33 11 18 1022.5 1022.4 0.0
20/09:30am 14.2 10.2 8.4 68 2.9 WSW 19 28 10 15 1022.5 1022.4 0.0
20/09:00am 13.4 9.6 7.6 68 2.8 WSW 17 30 9 16 1022.4 1022.3 0.8
20/08:30am 13.4 10.5 8.0 70 2.7 SW 13 24 7 13 1022.6 1022.5 0.8
20/08:00am 12.4 9.8 7.9 74 2.2 SW 11 19 6 10 1022.5 1022.4 0.8
20/07:30am 11.0 9.4 10.2 95 0.4 W 9 15 5 8 1022.5 1022.4 0.8
20/07:00am 11.0 7.4 8.4 84 1.3 SW 17 30 9 16 1022.6 1022.5 0.8
20/06:30am 10.6 8.5 8.2 85 1.2 W 9 11 5 6 1022.2 1022.1 0.8
20/06:00am 10.4 7.2 8.5 88 0.9 WSW 15 20 8 11 1022.2 1022.1 0.8
20/05:30am 10.4 7.4 7.5 82 1.4 WSW 13 20 7 11 1022.1 1022.0 0.8
20/05:00am 10.9 7.1 5.9 71 2.3 SW 15 24 8 13 1022.1 1022.0 0.8
20/04:30am 10.3 7.3 6.1 75 2.0 WSW 11 20 6 11 1021.9 1021.8 0.8
20/04:00am 9.7 7.9 7.1 84 1.2 SSW 6 11 3 6 1021.9 1021.8 0.8
20/03:30am 10.4 6.5 6.9 79 1.7 SSW 17 30 9 16 1022.0 1021.9 0.8
20/03:00am 10.7 8.0 5.5 70 2.4 SW 9 17 5 9 1021.8 1021.7 0.8
20/02:30am 10.4 7.8 6.2 75 2.0 SW 9 15 5 8 1021.8 1021.7 0.8
20/02:00am 11.0 7.7 4.5 64 2.9 SW 11 20 6 11 1022.0 1021.9 0.8
20/01:30am 11.2 7.9 4.4 63 3.1 SW 11 20 6 11 1022.0 1021.9 0.8
20/01:00am 11.0 7.4 4.9 66 2.8 SW 13 24 7 13 1022.2 1022.1 0.8
20/12:30am 10.9 8.1 5.0 67 2.7 WSW 9 13 5 7 1022.3 1022.2 0.8
20/12:00am 10.5 7.4 3.5 62 3.1 WSW 9 11 5 6 1022.5 1022.4 0.8
 
Date/Time
WST
Temp
°C
App
Temp
°C
Dew
Point
°C
Rel
Hum
%
Delta-T
°C
Wind Press
QNH
hPa
Press
MSL
hPa
Rain since
9am
mm
Dir  Spd
km/h
Gust
km/h
Spd
kts
Gust
kts
19/11:30pm 10.7 7.5 3.3 60 3.2 SW 9 19 5 10 1022.7 1022.6 0.8
19/11:00pm 11.1 8.3 5.0 66 2.8 SW 9 13 5 7 1022.7 1022.6 0.8
19/10:30pm 10.8 8.5 5.6 70 2.4 SW 7 15 4 8 1022.7 1022.6 0.8
19/10:00pm 10.9 7.5 5.9 71 2.3 SSW 13 20 7 11 1022.9 1022.8 0.8
19/09:30pm 11.1 7.8 6.5 73 2.2 S 13 20 7 11 1023.0 1022.9 0.8
19/09:00pm 11.1 7.6 3.6 60 3.3 SW 11 22 6 12 1023.0 1022.9 0.8
19/08:30pm 11.2 7.7 3.5 59 3.4 SW 11 17 6 9 1022.8 1022.7 0.8
19/08:00pm 11.3 7.7 5.2 66 2.8 SSW 13 19 7 10 1022.6 1022.5 0.8
19/07:30pm 11.2 8.2 4.2 62 3.1 SW 9 13 5 7 1022.4 1022.3 0.8
19/07:00pm 11.5 7.8 4.3 61 3.2 SW 13 26 7 14 1022.2 1022.1 0.8

Other Formats:

Comma delimited format used in spreadsheet applications
http://www.bom.gov.au/fwo/IDW60801/IDW60801.95647.axf

JavaScript Object Notation format (JSON) in row-major order
http://www.bom.gov.au/fwo/IDW60801/IDW60801.95647.json